sensor_id;sensor_type;location;lat;lon;timestamp;pressure;altitude;pressure_sealevel;temperature;humidity
23433;BME280;41331;45.412;10.992;2023-05-20T00:00:52;101015.19;;;16.48;85.19
23433;BME280;41331;45.412;10.992;2023-05-20T00:03:20;101013.78;;;16.54;83.15
23433;BME280;41331;45.412;10.992;2023-05-20T00:05:48;101006.16;;;16.64;83.40
23433;BME280;41331;45.412;10.992;2023-05-20T00:08:17;101018.31;;;16.63;82.87
23433;BME280;41331;45.412;10.992;2023-05-20T00:10:45;101013.69;;;16.67;83.28
23433;BME280;41331;45.412;10.992;2023-05-20T00:13:13;101005.09;;;16.68;82.90
23433;BME280;41331;45.412;10.992;2023-05-20T00:15:40;101009.34;;;16.66;82.10
23433;BME280;41331;45.412;10.992;2023-05-20T00:18:08;101006.53;;;16.62;81.49
23433;BME280;41331;45.412;10.992;2023-05-20T00:20:35;101004.91;;;16.61;82.25
23433;BME280;41331;45.412;10.992;2023-05-20T00:23:02;101000.38;;;16.69;82.63
23433;BME280;41331;45.412;10.992;2023-05-20T00:25:31;100995.53;;;16.78;82.06
23433;BME280;41331;45.412;10.992;2023-05-20T00:27:59;100996.38;;;16.66;83.41
23433;BME280;41331;45.412;10.992;2023-05-20T00:30:26;100998.63;;;16.76;80.98
23433;BME280;41331;45.412;10.992;2023-05-20T00:32:54;100995.44;;;16.74;81.27
23433;BME280;41331;45.412;10.992;2023-05-20T00:35:22;100995.53;;;16.78;81.66
23433;BME280;41331;45.412;10.992;2023-05-20T00:37:50;100986.66;;;16.85;81.10
23433;BME280;41331;45.412;10.992;2023-05-20T00:40:17;100984.53;;;16.78;81.00
23433;BME280;41331;45.412;10.992;2023-05-20T00:42:45;100987.44;;;16.69;81.52
23433;BME280;41331;45.412;10.992;2023-05-20T00:45:12;100980.72;;;16.67;83.04
23433;BME280;41331;45.412;10.992;2023-05-20T00:47:41;100972.91;;;16.69;81.35
23433;BME280;41331;45.412;10.992;2023-05-20T00:50:09;100966.38;;;16.73;81.41
23433;BME280;41331;45.412;10.992;2023-05-20T00:52:38;100984.44;;;16.90;80.83
23433;BME280;41331;45.412;10.992;2023-05-20T00:55:07;100976.81;;;16.68;80.98
23433;BME280;41331;45.412;10.992;2023-05-20T00:57:35;100980.13;;;16.73;82.61
23433;BME280;41331;45.412;10.992;2023-05-20T01:00:04;100973.03;;;16.72;80.34
23433;BME280;41331;45.412;10.992;2023-05-20T01:02:32;100973.47;;;16.74;80.68
23433;BME280;41331;45.412;10.992;2023-05-20T01:04:59;100985.50;;;16.70;80.84
23433;BME280;41331;45.412;10.992;2023-05-20T01:07:27;100976.22;;;16.74;81.63
23433;BME280;41331;45.412;10.992;2023-05-20T01:09:55;100974.41;;;16.66;82.41
23433;BME280;41331;45.412;10.992;2023-05-20T01:12:28;100976.34;;;16.66;82.07
23433;BME280;41331;45.412;10.992;2023-05-20T01:15:00;100969.28;;;16.80;79.65
23433;BME280;41331;45.412;10.992;2023-05-20T01:17:32;100963.63;;;16.73;80.21
23433;BME280;41331;45.412;10.992;2023-05-20T01:20:06;100961.41;;;16.79;80.71
23433;BME280;41331;45.412;10.992;2023-05-20T01:22:37;100959.53;;;16.83;79.75
23433;BME280;41331;45.412;10.992;2023-05-20T01:25:08;100958.56;;;16.75;79.63
23433;BME280;41331;45.412;10.992;2023-05-20T01:27:36;100947.28;;;16.80;80.33
23433;BME280;41331;45.412;10.992;2023-05-20T01:30:07;100953.25;;;16.67;81.43
23433;BME280;41331;45.412;10.992;2023-05-20T01:32:37;100954.09;;;16.71;81.73
23433;BME280;41331;45.412;10.992;2023-05-20T01:35:07;100945.97;;;16.58;83.60
23433;BME280;41331;45.412;10.992;2023-05-20T01:37:38;100949.69;;;16.50;86.85
23433;BME280;41331;45.412;10.992;2023-05-20T01:40:07;100946.59;;;16.52;86.34
23433;BME280;41331;45.412;10.992;2023-05-20T01:42:36;100942.25;;;16.51;84.61
23433;BME280;41331;45.412;10.992;2023-05-20T01:45:05;100944.13;;;16.47;86.35
23433;BME280;41331;45.412;10.992;2023-05-20T01:47:33;100940.50;;;16.43;87.49
23433;BME280;41331;45.412;10.992;2023-05-20T01:50:01;100936.31;;;16.49;85.73
23433;BME280;41331;45.412;10.992;2023-05-20T01:52:29;100927.19;;;16.45;86.89
23433;BME280;41331;45.412;10.992;2023-05-20T01:54:58;100930.56;;;16.38;87.33
23433;BME280;41331;45.412;10.992;2023-05-20T01:57:25;100919.22;;;16.40;86.92
23433;BME280;41331;45.412;10.992;2023-05-20T01:59:52;100914.88;;;16.39;87.73
23433;BME280;41331;45.412;10.992;2023-05-20T02:02:21;100911.72;;;16.37;87.97
23433;BME280;41331;45.412;10.992;2023-05-20T02:04:50;100911.84;;;16.60;86.09
23433;BME280;41331;45.412;10.992;2023-05-20T02:07:22;100903.25;;;16.45;87.53
23433;BME280;41331;45.412;10.992;2023-05-20T02:09:51;100905.94;;;16.42;87.84
23433;BME280;41331;45.412;10.992;2023-05-20T02:12:19;100905.53;;;16.59;84.54
23433;BME280;41331;45.412;10.992;2023-05-20T02:14:46;100902.44;;;16.61;83.53
23433;BME280;41331;45.412;10.992;2023-05-20T02:17:16;100908.06;;;16.48;88.19
23433;BME280;41331;45.412;10.992;2023-05-20T02:19:44;100899.63;;;16.25;91.53
23433;BME280;41331;45.412;10.992;2023-05-20T02:22:12;100898.44;;;16.07;92.40
23433;BME280;41331;45.412;10.992;2023-05-20T02:24:43;100895.69;;;16.07;92.98
23433;BME280;41331;45.412;10.992;2023-05-20T02:27:10;100902.13;;;15.99;92.74
23433;BME280;41331;45.412;10.992;2023-05-20T02:29:39;100897.88;;;16.33;85.66
23433;BME280;41331;45.412;10.992;2023-05-20T02:32:06;100892.44;;;16.52;83.67
23433;BME280;41331;45.412;10.992;2023-05-20T02:34:35;100893.84;;;16.62;81.75
23433;BME280;41331;45.412;10.992;2023-05-20T02:37:02;100892.97;;;16.74;80.94
23433;BME280;41331;45.412;10.992;2023-05-20T02:39:30;100897.00;;;16.80;80.27
23433;BME280;41331;45.412;10.992;2023-05-20T02:41:57;100895.34;;;16.75;79.31
23433;BME280;41331;45.412;10.992;2023-05-20T02:44:25;100888.13;;;16.87;78.74
23433;BME280;41331;45.412;10.992;2023-05-20T02:46:54;100885.94;;;16.76;79.31
23433;BME280;41331;45.412;10.992;2023-05-20T02:49:21;100894.19;;;16.76;80.48
23433;BME280;41331;45.412;10.992;2023-05-20T02:51:51;100882.19;;;16.85;78.71
23433;BME280;41331;45.412;10.992;2023-05-20T02:54:18;100874.75;;;16.85;78.20
23433;BME280;41331;45.412;10.992;2023-05-20T02:56:46;100873.44;;;16.79;78.99
23433;BME280;41331;45.412;10.992;2023-05-20T02:59:13;100868.03;;;16.82;78.76
23433;BME280;41331;45.412;10.992;2023-05-20T03:01:41;100867.28;;;16.86;78.21
23433;BME280;41331;45.412;10.992;2023-05-20T03:04:09;100861.28;;;16.80;79.22
23433;BME280;41331;45.412;10.992;2023-05-20T03:06:37;100856.22;;;16.82;79.07
23433;BME280;41331;45.412;10.992;2023-05-20T03:09:04;100862.00;;;16.77;79.25
23433;BME280;41331;45.412;10.992;2023-05-20T03:11:32;100860.78;;;16.74;80.33
23433;BME280;41331;45.412;10.992;2023-05-20T03:13:59;100857.31;;;16.77;79.56
23433;BME280;41331;45.412;10.992;2023-05-20T03:16:27;100858.63;;;16.83;79.30
23433;BME280;41331;45.412;10.992;2023-05-20T03:18:55;100866.09;;;16.67;83.37
23433;BME280;41331;45.412;10.992;2023-05-20T03:21:22;100860.03;;;16.42;87.30
23433;BME280;41331;45.412;10.992;2023-05-20T03:23:50;100865.28;;;16.31;87.74
23433;BME280;41331;45.412;10.992;2023-05-20T03:26:18;100852.88;;;16.22;87.55
23433;BME280;41331;45.412;10.992;2023-05-20T03:28:46;100852.34;;;16.16;88.87
23433;BME280;41331;45.412;10.992;2023-05-20T03:31:13;100858.47;;;16.10;89.81
23433;BME280;41331;45.412;10.992;2023-05-20T03:33:41;100853.59;;;16.03;88.98
23433;BME280;41331;45.412;10.992;2023-05-20T03:36:08;100851.75;;;16.07;88.56
23433;BME280;41331;45.412;10.992;2023-05-20T03:38:36;100848.91;;;16.03;89.04
23433;BME280;41331;45.412;10.992;2023-05-20T03:41:03;100849.59;;;16.00;88.92
23433;BME280;41331;45.412;10.992;2023-05-20T03:43:32;100851.03;;;15.94;89.01
23433;BME280;41331;45.412;10.992;2023-05-20T03:46:00;100845.91;;;15.93;90.06
23433;BME280;41331;45.412;10.992;2023-05-20T03:48:28;100857.59;;;15.90;90.31
23433;BME280;41331;45.412;10.992;2023-05-20T03:50:55;100859.44;;;15.86;91.31
23433;BME280;41331;45.412;10.992;2023-05-20T03:53:23;100863.88;;;15.90;92.84
23433;BME280;41331;45.412;10.992;2023-05-20T03:55:50;100855.25;;;15.76;98.32
23433;BME280;41331;45.412;10.992;2023-05-20T03:58:18;100855.63;;;15.74;95.49
23433;BME280;41331;45.412;10.992;2023-05-20T04:00:49;100855.63;;;15.74;93.81
23433;BME280;41331;45.412;10.992;2023-05-20T04:03:17;100848.91;;;15.72;91.61
23433;BME280;41331;45.412;10.992;2023-05-20T04:05:47;100855.63;;;15.74;92.11
23433;BME280;41331;45.412;10.992;2023-05-20T04:08:19;100845.44;;;15.75;91.90
23433;BME280;41331;45.412;10.992;2023-05-20T04:10:48;100851.38;;;15.77;91.27
23433;BME280;41331;45.412;10.992;2023-05-20T04:13:16;100849.44;;;15.77;91.51
23433;BME280;41331;45.412;10.992;2023-05-20T04:15:43;100848.19;;;15.75;91.90
23433;BME280;41331;45.412;10.992;2023-05-20T04:18:11;100838.72;;;15.72;92.18
23433;BME280;41331;45.412;10.992;2023-05-20T04:20:40;100847.50;;;15.78;92.56
23433;BME280;41331;45.412;10.992;2023-05-20T04:23:09;100834.19;;;15.80;94.34
23433;BME280;41331;45.412;10.992;2023-05-20T04:25:37;100843.22;;;15.80;95.69
23433;BME280;41331;45.412;10.992;2023-05-20T04:28:05;100851.47;;;15.80;95.62
23433;BME280;41331;45.412;10.992;2023-05-20T04:30:32;100844.03;;;15.81;95.10
23433;BME280;41331;45.412;10.992;2023-05-20T04:33:00;100845.91;;;15.77;95.40
23433;BME280;41331;45.412;10.992;2023-05-20T04:35:31;100848.28;;;15.78;96.26
23433;BME280;41331;45.412;10.992;2023-05-20T04:38:03;100850.41;;;15.85;96.56
23433;BME280;41331;45.412;10.992;2023-05-20T04:40:31;100847.59;;;15.82;95.79
23433;BME280;41331;45.412;10.992;2023-05-20T04:42:59;100846.16;;;15.88;95.83
23433;BME280;41331;45.412;10.992;2023-05-20T04:45:27;100845.19;;;15.96;95.84
23433;BME280;41331;45.412;10.992;2023-05-20T04:47:54;100837.41;;;15.98;95.85
23433;BME280;41331;45.412;10.992;2023-05-20T04:50:22;100834.75;;;16.01;96.70
23433;BME280;41331;45.412;10.992;2023-05-20T04:52:49;100834.81;;;16.05;94.35
23433;BME280;41331;45.412;10.992;2023-05-20T04:55:17;100830.47;;;16.04;95.10
23433;BME280;41331;45.412;10.992;2023-05-20T04:57:46;100822.41;;;16.11;99.16
23433;BME280;41331;45.412;10.992;2023-05-20T05:00:13;100813.03;;;16.12;98.47
23433;BME280;41331;45.412;10.992;2023-05-20T05:02:41;100823.28;;;16.15;100.00
23433;BME280;41331;45.412;10.992;2023-05-20T05:05:08;100812.75;;;16.17;100.00
23433;BME280;41331;45.412;10.992;2023-05-20T05:07:37;100810.81;;;16.18;99.73
23433;BME280;41331;45.412;10.992;2023-05-20T05:10:05;100810.72;;;16.14;100.00
23433;BME280;41331;45.412;10.992;2023-05-20T05:12:33;100811.97;;;16.17;100.00
23433;BME280;41331;45.412;10.992;2023-05-20T05:15:03;100809.66;;;16.19;99.57
23433;BME280;41331;45.412;10.992;2023-05-20T05:17:31;100800.78;;;16.25;99.86
23433;BME280;41331;45.412;10.992;2023-05-20T05:19:58;100805.09;;;16.26;100.00
23433;BME280;41331;45.412;10.992;2023-05-20T05:22:29;100798.47;;;16.27;100.00
23433;BME280;41331;45.412;10.992;2023-05-20T05:24:57;100797.41;;;16.32;100.00
23433;BME280;41331;45.412;10.992;2023-05-20T05:27:25;100792.34;;;16.34;100.00
23433;BME280;41331;45.412;10.992;2023-05-20T05:29:52;100788.00;;;16.33;100.00
23433;BME280;41331;45.412;10.992;2023-05-20T05:32:19;100780.19;;;16.35;100.00
23433;BME280;41331;45.412;10.992;2023-05-20T05:34:47;100782.31;;;16.42;100.00
23433;BME280;41331;45.412;10.992;2023-05-20T05:37:18;100779.28;;;16.47;100.00
23433;BME280;41331;45.412;10.992;2023-05-20T05:39:46;100782.47;;;16.49;100.00
23433;BME280;41331;45.412;10.992;2023-05-20T05:42:14;100784.41;;;16.48;100.00
23433;BME280;41331;45.412;10.992;2023-05-20T05:44:42;100782.88;;;16.51;100.00
23433;BME280;41331;45.412;10.992;2023-05-20T05:47:10;100775.53;;;16.55;100.00
23433;BME280;41331;45.412;10.992;2023-05-20T05:49:38;100779.06;;;16.55;100.00
23433;BME280;41331;45.412;10.992;2023-05-20T05:52:05;100782.31;;;16.61;100.00
23433;BME280;41331;45.412;10.992;2023-05-20T05:54:35;100772.66;;;16.67;100.00
23433;BME280;41331;45.412;10.992;2023-05-20T05:57:03;100777.53;;;16.74;100.00
23433;BME280;41331;45.412;10.992;2023-05-20T05:59:34;100778.72;;;16.76;100.00
23433;BME280;41331;45.412;10.992;2023-05-20T06:02:01;100786.97;;;16.76;99.18
23433;BME280;41331;45.412;10.992;2023-05-20T06:04:29;100776.06;;;16.80;97.33
23433;BME280;41331;45.412;10.992;2023-05-20T06:06:57;100785.91;;;16.81;96.33
23433;BME280;41331;45.412;10.992;2023-05-20T06:09:25;100784.69;;;16.78;97.26
23433;BME280;41331;45.412;10.992;2023-05-20T06:11:52;100793.63;;;16.75;96.05
23433;BME280;41331;45.412;10.992;2023-05-20T06:14:20;100779.72;;;16.68;96.96
23433;BME280;41331;45.412;10.992;2023-05-20T06:16:47;100782.47;;;16.68;96.88
23433;BME280;41331;45.412;10.992;2023-05-20T06:19:17;100786.81;;;16.69;98.26
23433;BME280;41331;45.412;10.992;2023-05-20T06:21:44;100784.97;;;16.73;97.62
23433;BME280;41331;45.412;10.992;2023-05-20T06:24:12;100788.59;;;16.77;95.80
23433;BME280;41331;45.412;10.992;2023-05-20T06:26:42;100787.34;;;16.75;95.30
23433;BME280;41331;45.412;10.992;2023-05-20T06:29:12;100788.88;;;16.72;97.51
23433;BME280;41331;45.412;10.992;2023-05-20T06:31:40;100780.81;;;16.64;99.02
23433;BME280;41331;45.412;10.992;2023-05-20T06:34:07;100793.31;;;16.61;99.88
23433;BME280;41331;45.412;10.992;2023-05-20T06:36:35;100794.94;;;16.62;99.08
23433;BME280;41331;45.412;10.992;2023-05-20T06:39:03;100788.25;;;16.63;97.60
23433;BME280;41331;45.412;10.992;2023-05-20T06:41:33;100790.34;;;16.70;97.80
23433;BME280;41331;45.412;10.992;2023-05-20T06:44:07;100797.13;;;16.72;99.81
23433;BME280;41331;45.412;10.992;2023-05-20T06:46:53;100792.84;;;16.75;99.00
23433;BME280;41331;45.412;10.992;2023-05-20T06:49:21;100785.66;;;16.70;100.00
23433;BME280;41331;45.412;10.992;2023-05-20T06:51:50;100789.59;;;16.89;95.19
23433;BME280;41331;45.412;10.992;2023-05-20T06:54:18;100805.88;;;16.78;96.91
23433;BME280;41331;45.412;10.992;2023-05-20T06:56:46;100802.75;;;16.79;94.14
23433;BME280;41331;45.412;10.992;2023-05-20T06:59:14;100801.19;;;16.78;95.08
23433;BME280;41331;45.412;10.992;2023-05-20T07:01:42;100799.84;;;16.92;94.11
23433;BME280;41331;45.412;10.992;2023-05-20T07:04:11;100802.34;;;16.97;93.02
23433;BME280;41331;45.412;10.992;2023-05-20T07:06:38;100801.09;;;16.94;94.67
23433;BME280;41331;45.412;10.992;2023-05-20T07:09:06;100789.50;;;17.04;92.96
23433;BME280;41331;45.412;10.992;2023-05-20T07:11:34;100796.25;;;17.07;94.06
23433;BME280;41331;45.412;10.992;2023-05-20T07:14:01;100798.25;;;17.10;93.82
23433;BME280;41331;45.412;10.992;2023-05-20T07:16:30;100798.63;;;17.08;93.06
23433;BME280;41331;45.412;10.992;2023-05-20T07:18:59;100805.59;;;17.02;93.06
23433;BME280;41331;45.412;10.992;2023-05-20T07:21:27;100804.84;;;17.05;95.39
23433;BME280;41331;45.412;10.992;2023-05-20T07:24:02;100800.59;;;17.08;96.15
23433;BME280;41331;45.412;10.992;2023-05-20T07:26:30;100795.13;;;17.12;92.10
23433;BME280;41331;45.412;10.992;2023-05-20T07:28:59;100790.81;;;17.11;95.10
23433;BME280;41331;45.412;10.992;2023-05-20T07:31:28;100779.81;;;17.11;95.13
23433;BME280;41331;45.412;10.992;2023-05-20T07:33:56;100775.41;;;17.06;95.74
23433;BME280;41331;45.412;10.992;2023-05-20T07:36:26;100782.25;;;17.16;95.52
23433;BME280;41331;45.412;10.992;2023-05-20T07:38:54;100783.00;;;17.13;96.46
23433;BME280;41331;45.412;10.992;2023-05-20T07:41:35;100778.28;;;17.13;96.08
23433;BME280;41331;45.412;10.992;2023-05-20T07:44:04;100772.66;;;17.06;100.00
23433;BME280;41331;45.412;10.992;2023-05-20T07:46:33;100781.63;;;17.03;100.00
23433;BME280;41331;45.412;10.992;2023-05-20T07:49:03;100779.81;;;17.11;100.00
23433;BME280;41331;45.412;10.992;2023-05-20T07:51:32;100774.91;;;17.00;100.00
23433;BME280;41331;45.412;10.992;2023-05-20T07:54:00;100774.97;;;17.04;100.00
23433;BME280;41331;45.412;10.992;2023-05-20T07:56:28;100778.94;;;17.06;100.00
23433;BME280;41331;45.412;10.992;2023-05-20T07:58:57;100772.19;;;17.23;97.10
23433;BME280;41331;45.412;10.992;2023-05-20T08:01:28;100775.81;;;17.50;91.15
23433;BME280;41331;45.412;10.992;2023-05-20T08:03:56;100777.88;;;17.57;89.14
23433;BME280;41331;45.412;10.992;2023-05-20T08:06:24;100776.25;;;17.75;88.04
23433;BME280;41331;45.412;10.992;2023-05-20T08:08:56;100777.19;;;17.83;84.56
23433;BME280;41331;45.412;10.992;2023-05-20T08:11:29;100775.63;;;17.85;84.25
23433;BME280;41331;45.412;10.992;2023-05-20T08:13:56;100785.66;;;17.97;84.15
23433;BME280;41331;45.412;10.992;2023-05-20T08:16:27;100784.44;;;17.95;84.48
23433;BME280;41331;45.412;10.992;2023-05-20T08:18:54;100791.44;;;17.89;83.83
23433;BME280;41331;45.412;10.992;2023-05-20T08:21:22;100788.19;;;17.83;84.35
23433;BME280;41331;45.412;10.992;2023-05-20T08:23:50;100800.22;;;17.98;84.91
23433;BME280;41331;45.412;10.992;2023-05-20T08:26:17;100803.00;;;17.75;84.87
23433;BME280;41331;45.412;10.992;2023-05-20T08:28:45;100819.19;;;17.80;85.60
23433;BME280;41331;45.412;10.992;2023-05-20T08:31:13;100821.84;;;17.73;86.76
23433;BME280;41331;45.412;10.992;2023-05-20T08:33:40;100826.53;;;17.72;87.40
23433;BME280;41331;45.412;10.992;2023-05-20T08:36:08;100834.06;;;17.75;88.55
23433;BME280;41331;45.412;10.992;2023-05-20T08:38:36;100823.06;;;17.56;91.46
23433;BME280;41331;45.412;10.992;2023-05-20T08:41:03;100827.31;;;17.50;92.06
23433;BME280;41331;45.412;10.992;2023-05-20T08:43:31;100832.50;;;17.55;91.57
23433;BME280;41331;45.412;10.992;2023-05-20T08:46:01;100827.47;;;17.38;94.51
23433;BME280;41331;45.412;10.992;2023-05-20T08:48:34;100826.94;;;17.51;94.04
23433;BME280;41331;45.412;10.992;2023-05-20T08:51:08;100830.28;;;17.41;95.46
23433;BME280;41331;45.412;10.992;2023-05-20T08:53:36;100827.09;;;17.39;95.79
23433;BME280;41331;45.412;10.992;2023-05-20T08:56:04;100828.00;;;17.24;97.32
23433;BME280;41331;45.412;10.992;2023-05-20T08:58:32;100827.19;;;17.43;97.88
23433;BME280;41331;45.412;10.992;2023-05-20T09:01:00;100830.56;;;17.36;99.74
23433;BME280;41331;45.412;10.992;2023-05-20T09:03:29;100824.28;;;17.35;99.61
23433;BME280;41331;45.412;10.992;2023-05-20T09:06:04;100828.06;;;17.27;100.00
23433;BME280;41331;45.412;10.992;2023-05-20T09:08:33;100835.97;;;17.52;99.17
23433;BME280;41331;45.412;10.992;2023-05-20T09:11:00;100839.41;;;17.45;99.84
23433;BME280;41331;45.412;10.992;2023-05-20T09:13:30;100832.09;;;17.53;97.88
23433;BME280;41331;45.412;10.992;2023-05-20T09:15:59;100841.69;;;17.63;96.04
23433;BME280;41331;45.412;10.992;2023-05-20T09:18:28;100848.03;;;17.67;95.85
23433;BME280;41331;45.412;10.992;2023-05-20T09:20:56;100842.84;;;17.61;96.26
23433;BME280;41331;45.412;10.992;2023-05-20T09:23:24;100840.75;;;17.55;96.01
23433;BME280;41331;45.412;10.992;2023-05-20T09:25:52;100851.38;;;17.56;95.59
23433;BME280;41331;45.412;10.992;2023-05-20T09:28:22;100843.78;;;17.69;96.49
23433;BME280;41331;45.412;10.992;2023-05-20T09:31:00;100843.22;;;17.60;96.84
23433;BME280;41331;45.412;10.992;2023-05-20T09:33:29;100841.94;;;17.54;97.23
23433;BME280;41331;45.412;10.992;2023-05-20T09:36:06;100843.78;;;17.69;96.67
23433;BME280;41331;45.412;10.992;2023-05-20T09:38:38;100838.28;;;17.92;96.77
23433;BME280;41331;45.412;10.992;2023-05-20T09:41:10;100832.34;;;18.13;97.16
23433;BME280;41331;45.412;10.992;2023-05-20T09:43:40;100836.41;;;18.23;94.08
23433;BME280;41331;45.412;10.992;2023-05-20T09:46:08;100840.44;;;18.29;92.46
23433;BME280;41331;45.412;10.992;2023-05-20T09:48:37;100839.06;;;18.16;93.09
23433;BME280;41331;45.412;10.992;2023-05-20T09:51:07;100833.59;;;18.19;93.77
23433;BME280;41331;45.412;10.992;2023-05-20T09:53:38;100836.91;;;18.28;94.20
23433;BME280;41331;45.412;10.992;2023-05-20T09:56:05;100830.47;;;18.21;94.28
23433;BME280;41331;45.412;10.992;2023-05-20T09:58:34;100832.81;;;18.19;94.62
23433;BME280;41331;45.412;10.992;2023-05-20T10:01:02;100836.09;;;18.28;96.57
23433;BME280;41331;45.412;10.992;2023-05-20T10:03:31;100821.03;;;18.22;95.50
23433;BME280;41331;45.412;10.992;2023-05-20T10:19:38;100800.66;;;18.56;98.00
23433;BME280;41331;45.412;10.992;2023-05-20T10:22:08;100803.09;;;18.61;97.38
23433;BME280;41331;45.412;10.992;2023-05-20T10:24:38;100802.91;;;18.74;94.24
23433;BME280;41331;45.412;10.992;2023-05-20T10:27:09;100791.88;;;18.74;94.33
23433;BME280;41331;45.412;10.992;2023-05-20T10:29:45;100796.47;;;18.66;95.40
23433;BME280;41331;45.412;10.992;2023-05-20T10:32:47;100792.63;;;18.71;92.34
23433;BME280;41331;45.412;10.992;2023-05-20T10:35:21;100788.78;;;18.79;90.83
23433;BME280;41331;45.412;10.992;2023-05-20T10:37:49;100786.88;;;18.86;89.19
23433;BME280;41331;45.412;10.992;2023-05-20T10:40:18;100788.19;;;18.96;87.24
23433;BME280;41331;45.412;10.992;2023-05-20T10:42:46;100787.34;;;18.92;86.93
23433;BME280;41331;45.412;10.992;2023-05-20T10:45:27;100781.13;;;18.99;86.25
23433;BME280;41331;45.412;10.992;2023-05-20T10:47:58;100780.13;;;19.14;88.72
23433;BME280;41331;45.412;10.992;2023-05-20T10:50:33;100767.63;;;19.27;86.80
23433;BME280;41331;45.412;10.992;2023-05-20T10:53:06;100769.97;;;19.25;85.53
23433;BME280;41331;45.412;10.992;2023-05-20T10:55:49;100760.22;;;19.35;85.73
23433;BME280;41331;45.412;10.992;2023-05-20T10:58:18;100761.56;;;19.52;84.66
23433;BME280;41331;45.412;10.992;2023-05-20T11:00:47;100766.66;;;19.50;85.76
23433;BME280;41331;45.412;10.992;2023-05-20T11:03:17;100752.50;;;19.55;85.77
23433;BME280;41331;45.412;10.992;2023-05-20T11:05:45;100753.63;;;19.47;85.38
23433;BME280;41331;45.412;10.992;2023-05-20T11:08:13;100749.31;;;19.53;83.98
23433;BME280;41331;45.412;10.992;2023-05-20T11:10:57;100749.56;;;19.33;82.09
23433;BME280;41331;45.412;10.992;2023-05-20T11:13:26;100752.34;;;19.33;84.18
23433;BME280;41331;45.412;10.992;2023-05-20T11:15:54;100749.44;;;19.19;83.19
23433;BME280;41331;45.412;10.992;2023-05-20T11:18:21;100743.53;;;19.21;84.22
23433;BME280;41331;45.412;10.992;2023-05-20T11:20:49;100744.72;;;19.20;81.59
23433;BME280;41331;45.412;10.992;2023-05-20T11:23:17;100742.38;;;19.25;82.06
23433;BME280;41331;45.412;10.992;2023-05-20T11:25:45;100733.72;;;19.23;81.54
23433;BME280;41331;45.412;10.992;2023-05-20T11:28:13;100740.06;;;19.31;82.35
23433;BME280;41331;45.412;10.992;2023-05-20T11:30:41;100729.44;;;19.29;80.87
23433;BME280;41331;45.412;10.992;2023-05-20T11:33:14;100736.47;;;19.23;80.94
23433;BME280;41331;45.412;10.992;2023-05-20T11:35:51;100724.97;;;19.18;81.78
23433;BME280;41331;45.412;10.992;2023-05-20T11:38:20;100730.13;;;19.19;81.47
23433;BME280;41331;45.412;10.992;2023-05-20T11:40:52;100747.91;;;19.25;81.48
23433;BME280;41331;45.412;10.992;2023-05-20T11:43:22;100735.16;;;19.10;80.02
23433;BME280;41331;45.412;10.992;2023-05-20T11:45:57;100732.34;;;19.06;80.44
23433;BME280;41331;45.412;10.992;2023-05-20T11:48:27;100727.56;;;19.00;81.50
23433;BME280;41331;45.412;10.992;2023-05-20T11:50:55;100732.34;;;19.06;81.61
23433;BME280;41331;45.412;10.992;2023-05-20T11:53:23;100733.81;;;18.93;81.41
23433;BME280;41331;45.412;10.992;2023-05-20T11:55:55;100747.25;;;18.98;82.21
23433;BME280;41331;45.412;10.992;2023-05-20T11:58:25;100757.97;;;19.07;82.50
23433;BME280;41331;45.412;10.992;2023-05-20T12:00:56;100777.59;;;18.98;82.42
23433;BME280;41331;45.412;10.992;2023-05-20T12:03:39;100781.13;;;18.99;82.95
23433;BME280;41331;45.412;10.992;2023-05-20T12:06:10;100785.06;;;18.98;83.16
23433;BME280;41331;45.412;10.992;2023-05-20T12:08:38;100770.44;;;18.94;82.55
23433;BME280;41331;45.412;10.992;2023-05-20T12:11:05;100762.91;;;18.91;83.41
23433;BME280;41331;45.412;10.992;2023-05-20T12:13:33;100753.56;;;18.99;83.17
23433;BME280;41331;45.412;10.992;2023-05-20T12:16:01;100747.00;;;19.14;83.91
23433;BME280;41331;45.412;10.992;2023-05-20T12:18:31;100751.28;;;19.08;82.52
23433;BME280;41331;45.412;10.992;2023-05-20T12:20:59;100760.44;;;19.15;82.79
23433;BME280;41331;45.412;10.992;2023-05-20T12:23:27;100769.53;;;19.20;82.79
23433;BME280;41331;45.412;10.992;2023-05-20T12:25:56;100771.88;;;19.18;83.16
23433;BME280;41331;45.412;10.992;2023-05-20T12:28:24;100767.13;;;19.14;82.98
23433;BME280;41331;45.412;10.992;2023-05-20T12:30:51;100766.50;;;19.32;83.44
23433;BME280;41331;45.412;10.992;2023-05-20T12:33:19;100778.31;;;19.29;83.73
23433;BME280;41331;45.412;10.992;2023-05-20T12:35:47;100777.97;;;19.34;82.33
23433;BME280;41331;45.412;10.992;2023-05-20T12:38:14;100774.03;;;19.35;81.90
23433;BME280;41331;45.412;10.992;2023-05-20T12:40:42;100770.50;;;19.38;82.68
23433;BME280;41331;45.412;10.992;2023-05-20T12:43:09;100771.31;;;19.42;82.54
23433;BME280;41331;45.412;10.992;2023-05-20T12:45:37;100774.84;;;19.39;82.40
23433;BME280;41331;45.412;10.992;2023-05-20T12:48:04;100773.28;;;19.41;82.16
23433;BME280;41331;45.412;10.992;2023-05-20T12:50:34;100765.44;;;19.44;80.38
23433;BME280;41331;45.412;10.992;2023-05-20T12:53:01;100772.19;;;19.50;80.47
23433;BME280;41331;45.412;10.992;2023-05-20T12:55:29;100771.75;;;19.48;80.30
23433;BME280;41331;45.412;10.992;2023-05-20T12:57:56;100772.66;;;19.59;80.59
23433;BME280;41331;45.412;10.992;2023-05-20T13:00:24;100769.19;;;19.65;80.41